Startpagina
METAR-TAF:

METAR-TAF

Vliegvelden :

Amman, Jordanië

breedte: 31-59N, lengte: 035-59E, hoogte: 767 m

Actueel weer

Dit bericht is 22 minuten geleden gemaakt, om 15:00 UTC
Wind 7 kt uit het westnoordwesten
Temperatuur 29°C
Vochtigheid 48%
Druk 1016 hPa
Zicht: 5000 m
Heiigheid

METAR: OJAM 221500Z 29007KT 5000 HZ NSC 29/17 Q1016 NOSIG

Tijdstip: 18:22 (15:22 UTC)

Verwachting

Dit bericht is 4 uur en het 32 minuten geleden gemaakt, om 10:50 UTC
Verwachting geldig van 22 om 12 UTC tot 23 om 18 UTC
Wind 12 kt uit het westen
Zicht: 5000 m
Heiigheid

TAF: OJAM 221050Z 2212/2318 28012KT 5000 HZ NSC

Waarnemingen en weersverwachtingen van meer dan 4000 vliegvelden (METAR en TAF).

De beschikbare stations zijn de gele en rode punten op de kaart.

Ga met uw muis naar het station om de naam te zien.

Klik dan om waarnemingen en weersverwachtingen te zien.

kaart wijzigen: klik op de groene knoppen met een zwart kruis om in te zoomen, op de groene knop met een streepje om uit te zoomen of op de groene pijlen voor aangrenzende kaarten.


METAR-TAF: